createdAt,value
2023-03-13T00:05:58.249Z,43.83
2023-03-13T00:16:05.153Z,43.82
2023-03-13T00:26:12.173Z,43.66
2023-03-13T00:36:19.155Z,43.67
2023-03-13T00:46:26.856Z,43.81
2023-03-13T00:56:34.210Z,43.79
2023-03-13T01:06:41.453Z,43.69
2023-03-13T01:16:48.212Z,43.70
2023-03-13T01:26:54.406Z,43.79
2023-03-13T01:37:01.527Z,43.73
2023-03-13T01:47:08.606Z,43.79
2023-03-13T01:57:14.899Z,43.86
2023-03-13T02:07:21.944Z,43.90
2023-03-13T02:17:28.541Z,43.76
2023-03-13T02:27:35.721Z,43.83
2023-03-13T02:37:42.955Z,43.71
2023-03-13T02:47:49.743Z,43.83
2023-03-13T02:57:56.953Z,43.80
2023-03-13T03:08:05.767Z,43.89
2023-03-13T03:18:12.904Z,43.92
2023-03-13T03:28:20.074Z,43.92
2023-03-13T03:38:26.977Z,44.00
2023-03-13T03:48:33.908Z,43.96
2023-03-13T03:58:41.395Z,43.90
2023-03-13T04:08:48.201Z,43.89
2023-03-13T04:18:55.363Z,43.97
2023-03-13T04:29:02.077Z,44.03
2023-03-13T04:39:09.229Z,44.03
2023-03-13T04:49:16.521Z,44.05
2023-03-13T04:59:23.202Z,44.15
2023-03-13T05:09:30.482Z,44.12
2023-03-13T05:19:37.511Z,44.25
2023-03-13T05:29:44.640Z,44.41
2023-03-13T05:39:51.596Z,44.63
2023-03-13T05:49:59.016Z,44.89
2023-03-13T06:00:06.024Z,44.97
2023-03-13T06:10:13.701Z,45.62
2023-03-13T06:20:20.621Z,45.98
2023-03-13T06:30:27.675Z,46.32
2023-03-13T06:40:34.798Z,46.48
2023-03-13T06:50:41.987Z,46.62
2023-03-13T07:00:49.124Z,46.71
2023-03-13T07:10:56.174Z,46.75
2023-03-13T07:21:03.313Z,46.88
2023-03-13T07:31:11.128Z,46.98
2023-03-13T07:41:18.174Z,47.11
2023-03-13T07:51:40.544Z,47.01
2023-03-13T08:01:37.061Z,47.04
2023-03-13T08:11:44.087Z,47.11
2023-03-13T08:21:51.423Z,47.21
2023-03-13T08:31:58.189Z,47.26
2023-03-13T08:42:05.391Z,47.34
2023-03-13T08:52:12.626Z,47.93
2023-03-13T09:02:19.624Z,48.66
2023-03-13T09:12:31.125Z,48.66
2023-03-13T09:22:38.747Z,48.80
2023-03-13T09:32:46.051Z,48.75
2023-03-13T09:42:53.499Z,48.83
2023-03-13T09:53:00.700Z,48.64
2023-03-13T10:03:07.594Z,48.50
2023-03-13T10:13:14.718Z,48.46
2023-03-13T10:23:21.990Z,48.33
2023-03-13T10:33:29.055Z,48.24
2023-03-13T10:43:35.945Z,48.20
2023-03-13T10:53:42.989Z,48.39
2023-03-13T11:03:49.232Z,48.64
2023-03-13T11:13:57.226Z,48.74
2023-03-13T11:24:04.424Z,49.02
2023-03-13T11:34:10.974Z,49.43
2023-03-13T11:44:17.997Z,50.37
2023-03-13T11:54:25.355Z,50.31
2023-03-13T12:04:32.385Z,50.62
2023-03-13T12:14:39.473Z,50.67
2023-03-13T12:24:46.316Z,52.12
2023-03-13T12:34:53.448Z,51.90
2023-03-13T12:45:00.278Z,51.65
2023-03-13T12:55:07.362Z,51.49
2023-03-13T13:05:14.575Z,50.95
2023-03-13T13:15:21.590Z,50.82
2023-03-13T13:25:28.729Z,50.65
2023-03-13T13:35:35.886Z,50.67
2023-03-13T13:45:42.779Z,50.94
2023-03-13T13:55:49.940Z,51.24
2023-03-13T14:05:56.775Z,50.77
2023-03-13T14:16:04.230Z,50.35
2023-03-13T14:26:11.229Z,50.13
2023-03-13T14:36:18.029Z,49.96
2023-03-13T14:46:25.269Z,49.86
2023-03-13T14:56:32.284Z,49.84
2023-03-13T15:06:39.845Z,49.84
2023-03-13T15:16:47.378Z,49.81
2023-03-13T15:26:54.263Z,49.79
2023-03-13T15:37:01.221Z,49.73
2023-03-13T15:47:08.214Z,49.80
2023-03-13T15:57:15.428Z,49.83
2023-03-13T16:07:22.549Z,49.79
2023-03-13T16:17:29.272Z,49.35
2023-03-13T16:27:36.576Z,49.16
2023-03-13T16:37:43.650Z,49.02
2023-03-13T16:47:50.178Z,49.11
2023-03-13T16:57:56.939Z,49.31
2023-03-13T17:08:04.335Z,49.70
2023-03-13T17:18:11.707Z,49.79
2023-03-13T17:28:19.212Z,49.92
2023-03-13T17:38:26.105Z,49.79
2023-03-13T17:48:32.864Z,49.64
2023-03-13T17:58:40.442Z,49.62
2023-03-13T18:08:47.951Z,49.88
2023-03-13T18:18:54.988Z,49.93
2023-03-13T18:29:01.951Z,49.87
2023-03-13T18:39:08.921Z,50.11
2023-03-13T18:49:16.022Z,50.12
2023-03-13T18:59:23.187Z,50.19
2023-03-13T19:09:43.187Z,50.28
2023-03-13T19:19:42.334Z,50.32
2023-03-13T19:29:49.203Z,50.31
2023-03-13T19:39:56.799Z,50.34
2023-03-13T19:50:04.554Z,50.35
2023-03-13T20:00:11.163Z,50.29
2023-03-13T20:10:18.351Z,50.24
2023-03-13T20:20:25.542Z,50.25
2023-03-13T20:30:32.434Z,50.20
2023-03-13T20:40:39.870Z,50.13
2023-03-13T20:50:47.361Z,50.13
2023-03-13T21:00:54.807Z,50.19
2023-03-13T21:11:02.447Z,50.15
2023-03-13T21:21:09.415Z,50.04
2023-03-13T21:31:16.916Z,50.08
2023-03-13T21:41:23.538Z,50.03
2023-03-13T21:51:30.508Z,50.09
2023-03-13T22:01:37.624Z,50.15
2023-03-13T22:11:44.968Z,50.13
2023-03-13T22:21:52.335Z,50.06
2023-03-13T22:31:59.085Z,50.01
2023-03-13T22:42:06.535Z,49.94
2023-03-13T22:52:13.993Z,49.85
2023-03-13T23:02:21.317Z,49.90
2023-03-13T23:12:28.278Z,49.92
2023-03-13T23:22:34.947Z,49.89
2023-03-13T23:32:42.208Z,49.82
2023-03-13T23:42:49.462Z,49.75
2023-03-13T23:52:56.474Z,49.78
